Погода Сант Юлиасна 2 недели

Аура, Мальта

25 июля-07 августа
  • 25июля
    Сегодня
    +23°
    +31°
    Ясно и безоблачно
    ВремяПогодаТемператураВлажностьДавлениеВетер, м/сВероятность осадков
    02:00Ясно и безоблачно+25°C86 %757 мм5.9 м/с2 %
    05:00Ясно и безоблачно+25°C89 %757 мм6.9 м/с2 %
    08:00Ясно и безоблачно+27°C81 %757 мм6.3 м/с2 %
    11:00Ясно и безоблачно+29°C73 %757 мм5.7 м/с2 %
    14:00Ясно и безоблачно+31°C69 %757 мм4.9 м/с2 %
    17:00Ясно и безоблачно+30°C70 %757 мм4.5 м/с2 %
    20:00Ясно и безоблачно+26°C82 %757 мм4.3 м/с2 %
    23:00Ясно и безоблачно+25°C86 %758 мм1.7 м/с2 %
  • 26июля
    Пятница
    +23°
    +32°
    Ясно и безоблачно
    ВремяПогодаТемператураВлажностьДавлениеВетер, м/сВероятность осадков
    02:00Ясно и безоблачно+24°C90 %757 мм1.2 м/с2 %
    05:00Ясно и безоблачно+24°C92 %757 мм2.0 м/с2 %
    08:00Ясно и безоблачно+26°C85 %758 мм1.3 м/с2 %
    11:00Ясно и безоблачно+30°C68 %759 мм1.1 м/с2 %
    14:00Ясно и безоблачно+31°C63 %759 мм2.3 м/с2 %
    17:00Ясно и безоблачно+30°C62 %759 мм2.9 м/с2 %
    20:00Ясно и безоблачно+28°C69 %759 мм2.7 м/с2 %
    23:00Ясно и безоблачно+26°C75 %760 мм2.1 м/с2 %
  • 27июля
    Суббота
    +24°
    +33°
    Ясно и безоблачно
    ВремяПогодаТемператураВлажностьДавлениеВетер, м/сВероятность осадков
    02:00Ясно и безоблачно+24°C81 %760 мм0.2 м/с2 %
    05:00Ясно и безоблачно+24°C86 %760 мм1.2 м/с2 %
    08:00Ясно и безоблачно+27°C81 %761 мм1.4 м/с2 %
    11:00Ясно и безоблачно+30°C64 %762 мм1.0 м/с2 %
    14:00Ясно и безоблачно+32°C63 %762 мм1.4 м/с2 %
    17:00Ясно и безоблачно+31°C63 %761 мм1.2 м/с2 %
    20:00Ясно и безоблачно+28°C73 %761 мм2.5 м/с2 %
    23:00Ясно и безоблачно+26°C78 %762 мм1.9 м/с2 %
  • 28июля
    Воскресенье
    +24°
    +32°
    Ясно и безоблачно
    ВремяПогодаТемператураВлажностьДавлениеВетер, м/сВероятность осадков
    02:00Ясно и безоблачно+25°C83 %762 мм2.2 м/с2 %
    05:00Ясно и безоблачно+25°C88 %762 мм2.8 м/с2 %
    08:00Ясно и безоблачно+28°C74 %763 мм3.3 м/с2 %
    11:00Ясно и безоблачно+31°C61 %764 мм2.6 м/с2 %
    14:00Ясно и безоблачно+32°C57 %763 мм2.3 м/с2 %
    17:00Ясно и безоблачно+31°C59 %762 мм1.7 м/с2 %
    20:00Ясно и безоблачно+28°C70 %762 мм2.0 м/с2 %
    23:00Ясно и безоблачно+26°C77 %763 мм0.1 м/с2 %
  • 29июля
    Понедельник
    +25°
    +33°
    Ясно и безоблачно
    ВремяПогодаТемператураВлажностьДавлениеВетер, м/сВероятность осадков
    02:00Ясно и безоблачно+26°C79 %762 мм1.9 м/с2 %
    05:00Ясно и безоблачно+25°C83 %761 мм2.3 м/с2 %
    08:00Ясно и безоблачно+28°C74 %762 мм2.7 м/с2 %
    11:00Ясно и безоблачно+31°C64 %762 мм2.9 м/с2 %
    14:00Ясно и безоблачно+33°C64 %761 мм3.0 м/с2 %
    17:00Ясно и безоблачно+31°C69 %760 мм2.0 м/с2 %
    20:00Ясно и безоблачно+28°C77 %760 мм2.6 м/с2 %
    23:00Ясно и безоблачно+27°C81 %760 мм1.4 м/с2 %
Мы используем cookies
Соглашаюсь